createdAt,value
2023-11-01T00:00:20.278Z,0.85
2023-11-01T00:01:20.332Z,0.90
2023-11-01T00:02:20.322Z,0.95
2023-11-01T00:03:20.462Z,0.95
2023-11-01T00:04:20.444Z,0.99
2023-11-01T00:05:20.454Z,0.98
2023-11-01T00:06:20.480Z,0.96
2023-11-01T00:07:20.530Z,0.94
2023-11-01T00:08:20.646Z,0.93
2023-11-01T00:09:20.657Z,0.96
2023-11-01T00:10:20.675Z,0.96
2023-11-01T00:11:20.821Z,0.89
2023-11-01T00:12:20.731Z,0.82
2023-11-01T00:13:20.789Z,0.73
2023-11-01T00:14:20.943Z,0.62
2023-11-01T00:15:20.984Z,0.59
2023-11-01T00:16:21.039Z,0.58
2023-11-01T00:17:21.034Z,0.55
2023-11-01T00:18:21.107Z,0.52
2023-11-01T00:19:21.133Z,0.52
2023-11-01T00:20:21.246Z,0.55
2023-11-01T00:21:21.241Z,0.53
2023-11-01T00:22:21.245Z,0.51
2023-11-01T00:23:21.293Z,0.51
2023-11-01T00:24:21.260Z,0.51
2023-11-01T00:25:21.378Z,0.50
2023-11-01T00:26:21.432Z,0.50
2023-11-01T00:27:21.710Z,0.51
2023-11-01T00:28:21.395Z,0.51
2023-11-01T00:29:21.469Z,0.50
2023-11-01T00:30:21.529Z,0.51
2023-11-01T00:31:21.527Z,0.51
2023-11-01T00:32:21.649Z,0.51
2023-11-01T00:33:21.735Z,0.52
2023-11-01T00:34:21.762Z,0.54
2023-11-01T00:35:21.793Z,0.50
2023-11-01T00:36:21.776Z,0.51
2023-11-01T00:37:21.785Z,0.51
2023-11-01T00:38:21.883Z,0.51
2023-11-01T00:39:21.979Z,0.50
2023-11-01T00:40:21.904Z,0.50
2023-11-01T00:41:21.915Z,0.50
2023-11-01T00:42:22.118Z,0.50
2023-11-01T00:43:21.917Z,0.52
2023-11-01T00:44:22.020Z,0.52
2023-11-01T00:45:22.081Z,0.54
2023-11-01T00:46:22.169Z,0.55
2023-11-01T00:47:22.279Z,0.57
2023-11-01T00:48:22.274Z,0.58
2023-11-01T00:49:22.290Z,0.62
2023-11-01T00:50:22.272Z,0.68
2023-11-01T00:51:22.273Z,0.76
2023-11-01T00:52:22.298Z,0.75
2023-11-01T00:53:22.308Z,0.67
2023-11-01T00:54:22.297Z,0.60
2023-11-01T00:55:22.243Z,0.59
2023-11-01T00:56:22.308Z,0.60
2023-11-01T00:57:22.327Z,0.56
2023-11-01T00:58:22.425Z,0.57
2023-11-01T00:59:22.441Z,0.62
2023-11-01T01:00:22.456Z,0.67
2023-11-01T01:01:22.523Z,0.75
2023-11-01T01:02:22.695Z,0.78
2023-11-01T01:03:22.676Z,0.78
2023-11-01T01:04:22.575Z,0.75
2023-11-01T01:05:22.613Z,0.76
2023-11-01T01:06:23.175Z,0.78
2023-11-01T01:07:22.606Z,0.80
2023-11-01T01:08:22.681Z,0.82
2023-11-01T01:09:22.641Z,0.83
2023-11-01T01:10:22.728Z,0.83
2023-11-01T01:11:22.747Z,0.88
2023-11-01T01:12:22.726Z,0.93
2023-11-01T01:13:22.730Z,0.94
2023-11-01T01:14:22.772Z,0.96
2023-11-01T01:15:22.870Z,0.90
2023-11-01T01:16:22.874Z,0.86
2023-11-01T01:17:22.893Z,0.86
2023-11-01T01:18:22.894Z,0.85
2023-11-01T01:19:22.855Z,0.82
2023-11-01T01:20:23.117Z,0.82
2023-11-01T01:21:23.008Z,0.81
2023-11-01T01:22:23.020Z,0.78
2023-11-01T01:23:23.042Z,0.65
2023-11-01T01:24:23.016Z,0.59
2023-11-01T01:25:23.118Z,0.55
2023-11-01T01:26:23.139Z,0.53
2023-11-01T01:27:23.136Z,0.55
2023-11-01T01:28:23.131Z,0.56
2023-11-01T01:29:23.188Z,0.55
2023-11-01T01:30:23.164Z,0.55
2023-11-01T01:31:23.301Z,0.53
2023-11-01T01:32:23.319Z,0.54
2023-11-01T01:33:23.415Z,0.51
2023-11-01T01:34:23.398Z,0.51
2023-11-01T01:35:23.453Z,0.52
2023-11-01T01:36:23.454Z,0.51
2023-11-01T01:37:24.227Z,0.50
2023-11-01T01:38:23.645Z,0.50
2023-11-01T01:39:23.646Z,0.51
2023-11-01T01:40:23.630Z,0.51
2023-11-01T01:41:23.684Z,0.51
2023-11-01T01:42:23.661Z,0.54
2023-11-01T01:43:23.819Z,0.54
2023-11-01T01:44:24.214Z,0.56
2023-11-01T01:45:23.856Z,0.59
2023-11-01T01:46:23.868Z,0.58
2023-11-01T01:47:23.899Z,0.57
2023-11-01T01:48:23.950Z,0.56
2023-11-01T01:49:32.828Z,0.55
2023-11-01T01:50:25.213Z,0.55
2023-11-01T01:51:23.938Z,0.56
2023-11-01T01:52:23.922Z,0.59
2023-11-01T01:53:24.063Z,0.65
2023-11-01T01:54:23.962Z,0.74
2023-11-01T01:55:23.891Z,0.78
2023-11-01T01:56:23.926Z,0.81
2023-11-01T01:57:23.920Z,0.81
2023-11-01T01:58:23.974Z,0.78
2023-11-01T01:59:23.886Z,0.74
2023-11-01T02:00:23.847Z,0.76
2023-11-01T02:01:34.738Z,0.71
2023-11-01T02:02:24.935Z,0.71
2023-11-01T02:03:23.995Z,0.69
2023-11-01T02:04:25.426Z,0.64
2023-11-01T02:05:23.875Z,0.62
2023-11-01T02:06:23.856Z,0.67
2023-11-01T02:07:23.917Z,0.66
2023-11-01T02:08:24.673Z,0.65
2023-11-01T02:09:24.848Z,0.63
2023-11-01T02:10:23.892Z,0.61
2023-11-01T02:11:23.981Z,0.61
2023-11-01T02:12:23.918Z,0.61
2023-11-01T02:13:23.957Z,0.67
2023-11-01T02:14:23.995Z,0.64
2023-11-01T02:15:24.063Z,0.57
2023-11-01T02:16:24.183Z,0.58
2023-11-01T02:17:24.161Z,0.57
2023-11-01T02:18:24.176Z,0.60
2023-11-01T02:19:24.166Z,0.63
2023-11-01T02:20:24.253Z,0.68
2023-11-01T02:21:24.334Z,0.69
2023-11-01T02:22:24.368Z,0.72
2023-11-01T02:23:24.354Z,0.71
2023-11-01T02:24:24.266Z,0.67
2023-11-01T02:25:24.324Z,0.66
2023-11-01T02:26:24.333Z,0.67
2023-11-01T02:27:24.351Z,0.66
2023-11-01T02:28:24.376Z,0.62
2023-11-01T02:29:24.370Z,0.58
2023-11-01T02:30:24.395Z,0.55
2023-11-01T02:31:24.441Z,0.48
2023-11-01T02:32:24.538Z,0.50
2023-11-01T02:33:24.471Z,0.50
2023-11-01T02:34:24.530Z,0.46
2023-11-01T02:35:24.578Z,0.51
2023-11-01T02:36:24.585Z,0.55
2023-11-01T02:37:24.583Z,0.59
2023-11-01T02:38:24.645Z,0.60
2023-11-01T02:39:24.613Z,0.63
2023-11-01T02:40:24.726Z,0.60
2023-11-01T02:41:24.692Z,0.58
2023-11-01T02:42:24.686Z,0.50
2023-11-01T02:43:24.748Z,0.50
2023-11-01T02:44:24.797Z,0.45
2023-11-01T02:45:24.840Z,0.50
2023-11-01T02:46:24.832Z,0.52
2023-11-01T02:47:24.918Z,0.54
2023-11-01T02:48:24.832Z,0.57
2023-11-01T02:49:24.869Z,0.59
2023-11-01T02:50:24.912Z,0.65
2023-11-01T02:51:24.898Z,0.70
2023-11-01T02:52:24.971Z,0.70
2023-11-01T02:53:25.130Z,0.76
2023-11-01T02:54:25.022Z,0.82
2023-11-01T02:55:25.029Z,0.88
2023-11-01T02:56:25.119Z,0.90
2023-11-01T02:57:25.188Z,0.93
2023-11-01T02:58:25.388Z,1.00
2023-11-01T02:59:25.250Z,1.01
2023-11-01T03:00:25.253Z,1.06
2023-11-01T03:01:25.289Z,1.05
2023-11-01T03:02:25.361Z,0.98
2023-11-01T03:03:25.707Z,0.80
2023-11-01T03:04:25.388Z,0.70
2023-11-01T03:05:25.529Z,0.66
2023-11-01T03:06:25.542Z,0.62
2023-11-01T03:07:25.587Z,0.66
2023-11-01T03:08:25.654Z,0.64
2023-11-01T03:09:26.669Z,0.64
2023-11-01T03:10:25.753Z,0.52
2023-11-01T03:11:25.726Z,0.50
2023-11-01T03:12:25.790Z,0.50
2023-11-01T03:13:25.854Z,0.52
2023-11-01T03:14:25.938Z,0.57
2023-11-01T03:15:25.888Z,0.65
2023-11-01T03:16:25.962Z,0.73
2023-11-01T03:17:26.028Z,0.76
2023-11-01T03:18:26.036Z,0.78
2023-11-01T03:19:26.076Z,0.80
2023-11-01T03:20:26.171Z,0.81
2023-11-01T03:21:26.132Z,0.85
2023-11-01T03:22:26.142Z,0.95
2023-11-01T03:23:26.218Z,0.99
2023-11-01T03:24:26.250Z,1.02
2023-11-01T03:25:26.261Z,1.00
2023-11-01T03:26:26.737Z,0.91
2023-11-01T03:27:26.372Z,0.84
2023-11-01T03:28:26.387Z,0.85
2023-11-01T03:29:26.472Z,0.92
2023-11-01T03:30:26.491Z,1.03
2023-11-01T03:31:26.676Z,1.09
2023-11-01T03:32:26.662Z,1.15
2023-11-01T03:33:26.757Z,1.24
2023-11-01T03:34:26.608Z,1.32
2023-11-01T03:35:26.669Z,1.29
2023-11-01T03:36:26.682Z,1.21
2023-11-01T03:37:26.737Z,1.14
2023-11-01T03:38:26.713Z,1.11
2023-11-01T03:39:26.776Z,0.95
2023-11-01T03:40:26.774Z,0.77
2023-11-01T03:41:26.831Z,0.73
2023-11-01T03:42:26.872Z,0.75
2023-11-01T03:43:26.883Z,0.81
2023-11-01T03:44:26.975Z,0.86
2023-11-01T03:45:27.028Z,0.95
2023-11-01T03:46:27.094Z,0.97
2023-11-01T03:47:27.145Z,1.08
2023-11-01T03:48:27.194Z,1.33
2023-11-01T03:49:27.182Z,1.59
2023-11-01T03:50:27.212Z,1.81
2023-11-01T03:51:27.247Z,2.04
2023-11-01T03:52:27.267Z,2.13
2023-11-01T03:53:27.343Z,2.15
2023-11-01T03:54:27.371Z,2.11
2023-11-01T03:55:27.344Z,2.16
2023-11-01T03:56:27.401Z,2.21
2023-11-01T03:57:27.421Z,2.15
2023-11-01T03:58:27.403Z,2.09
2023-11-01T03:59:27.559Z,1.95
2023-11-01T04:00:27.505Z,1.87
2023-11-01T04:01:27.545Z,1.78
2023-11-01T04:02:27.625Z,1.68
2023-11-01T04:03:27.680Z,1.69
2023-11-01T04:04:27.629Z,1.77
2023-11-01T04:05:27.738Z,1.80
2023-11-01T04:06:27.744Z,1.73
2023-11-01T04:07:27.780Z,1.70
2023-11-01T04:08:28.711Z,1.56
2023-11-01T04:09:27.823Z,1.37
2023-11-01T04:10:28.703Z,1.33
2023-11-01T04:11:28.012Z,1.41
2023-11-01T04:12:27.930Z,1.40
2023-11-01T04:13:27.932Z,1.33
2023-11-01T04:14:28.021Z,1.22
2023-11-01T04:15:28.027Z,1.21
2023-11-01T04:16:28.048Z,1.21
2023-11-01T04:17:28.207Z,1.17
2023-11-01T04:18:28.141Z,1.21
2023-11-01T04:19:28.186Z,1.10
2023-11-01T04:20:28.261Z,1.04
2023-11-01T04:21:28.163Z,0.97
2023-11-01T04:22:28.262Z,0.91
2023-11-01T04:23:28.280Z,0.87
2023-11-01T04:24:28.291Z,0.84
2023-11-01T04:25:28.287Z,0.83
2023-11-01T04:26:28.432Z,0.80
2023-11-01T04:27:28.327Z,0.67
2023-11-01T04:28:28.376Z,0.62
2023-11-01T04:29:28.442Z,0.58
2023-11-01T04:30:28.444Z,0.54
2023-11-01T04:31:28.555Z,0.50
2023-11-01T04:32:28.764Z,0.50
2023-11-01T04:33:28.604Z,0.50
2023-11-01T04:34:28.583Z,0.51
2023-11-01T04:35:28.608Z,0.57
2023-11-01T04:36:28.787Z,0.62
2023-11-01T04:37:28.690Z,0.69
2023-11-01T04:38:28.757Z,0.70
2023-11-01T04:39:28.795Z,0.76
2023-11-01T04:40:28.757Z,0.88
2023-11-01T04:41:29.766Z,0.99
2023-11-01T04:42:28.827Z,1.10
2023-11-01T04:43:28.828Z,1.12
2023-11-01T04:44:28.882Z,1.13
2023-11-01T04:45:29.105Z,1.23
2023-11-01T04:46:29.010Z,1.35
2023-11-01T04:47:29.021Z,1.53
2023-11-01T04:48:29.117Z,1.81
2023-11-01T04:49:29.108Z,1.37
2023-11-01T04:50:29.140Z,1.05
2023-11-01T04:51:29.123Z,1.21
2023-11-01T04:52:29.215Z,1.50
2023-11-01T04:53:29.271Z,1.62
2023-11-01T04:54:29.225Z,1.60
2023-11-01T04:55:29.233Z,1.62
2023-11-01T04:56:29.381Z,1.47
2023-11-01T04:57:29.338Z,1.49
2023-11-01T04:58:29.432Z,1.37
2023-11-01T04:59:29.393Z,1.14
2023-11-01T05:00:29.411Z,0.96
2023-11-01T05:01:29.523Z,0.92
2023-11-01T05:02:29.538Z,0.88
2023-11-01T05:03:29.571Z,0.90
2023-11-01T05:04:29.709Z,1.06
2023-11-01T05:05:29.542Z,1.20
2023-11-01T05:06:29.518Z,1.15
2023-11-01T05:07:29.625Z,1.02
2023-11-01T05:08:29.675Z,0.96
2023-11-01T05:09:29.720Z,0.99
2023-11-01T05:10:29.741Z,0.92
2023-11-01T05:11:29.750Z,0.97
2023-11-01T05:12:29.805Z,0.97
2023-11-01T05:13:29.840Z,0.96
2023-11-01T05:14:29.863Z,0.97
2023-11-01T05:15:29.945Z,0.98
2023-11-01T05:16:29.991Z,1.00
2023-11-01T05:17:30.072Z,0.98
2023-11-01T05:18:30.049Z,0.98
2023-11-01T05:19:30.006Z,0.86
2023-11-01T05:20:30.117Z,0.77
2023-11-01T05:21:30.106Z,0.70
2023-11-01T05:22:30.126Z,0.68
2023-11-01T05:23:30.190Z,0.68
2023-11-01T05:24:30.138Z,0.72
2023-11-01T05:25:30.871Z,0.63
2023-11-01T05:26:30.291Z,0.63
2023-11-01T05:27:30.273Z,0.63
2023-11-01T05:28:30.273Z,0.59
2023-11-01T05:29:30.417Z,0.56
2023-11-01T05:30:30.453Z,0.51
2023-11-01T05:31:30.385Z,0.51
2023-11-01T05:32:30.467Z,0.50
2023-11-01T05:33:30.436Z,0.50
2023-11-01T05:34:30.971Z,0.53
2023-11-01T05:35:30.537Z,0.50
2023-11-01T05:36:30.584Z,0.50
2023-11-01T05:37:30.743Z,0.48
2023-11-01T05:38:30.818Z,0.50
2023-11-01T05:39:30.753Z,0.50
2023-11-01T05:40:30.737Z,0.53
2023-11-01T05:41:30.802Z,0.57
2023-11-01T05:42:30.788Z,0.51
2023-11-01T05:43:30.787Z,0.50
2023-11-01T05:44:30.972Z,0.55
2023-11-01T05:45:30.889Z,0.64
2023-11-01T05:46:30.968Z,0.73
2023-11-01T05:47:31.230Z,0.78
2023-11-01T05:48:31.015Z,0.85
2023-11-01T05:49:31.028Z,1.03
2023-11-01T05:50:31.068Z,1.08
2023-11-01T05:51:31.160Z,1.09
2023-11-01T05:52:31.242Z,1.04
2023-11-01T05:53:31.173Z,1.13
2023-11-01T05:54:31.228Z,1.29
2023-11-01T05:55:38.536Z,1.37
2023-11-01T05:56:32.283Z,1.31
2023-11-01T05:57:31.267Z,1.24
2023-11-01T05:58:31.263Z,1.21
2023-11-01T05:59:31.253Z,1.32
2023-11-01T06:00:31.745Z,1.41
2023-11-01T06:01:31.242Z,1.53
2023-11-01T06:02:31.312Z,1.66
2023-11-01T06:03:31.410Z,1.65
2023-11-01T06:04:31.299Z,1.74
2023-11-01T06:05:31.238Z,1.57
2023-11-01T06:06:31.205Z,1.23
2023-11-01T06:07:31.143Z,1.27
2023-11-01T06:08:31.197Z,1.31
2023-11-01T06:09:32.023Z,1.30
2023-11-01T06:10:31.166Z,1.30
2023-11-01T06:11:31.213Z,1.23
2023-11-01T06:12:31.257Z,1.21
2023-11-01T06:13:31.285Z,1.30
2023-11-01T06:14:31.333Z,1.34
2023-11-01T06:15:31.336Z,1.45
2023-11-01T06:16:31.450Z,1.55
2023-11-01T06:17:31.602Z,1.62
2023-11-01T06:18:31.453Z,1.61
2023-11-01T06:19:31.532Z,1.49
2023-11-01T06:20:31.577Z,1.23
2023-11-01T06:21:31.579Z,1.28
2023-11-01T06:22:31.676Z,1.43
2023-11-01T06:23:31.717Z,1.27
2023-11-01T06:24:31.706Z,1.53
2023-11-01T06:25:31.705Z,2.23
2023-11-01T06:26:31.896Z,2.87
2023-11-01T06:27:31.813Z,3.38
2023-11-01T06:28:31.833Z,3.40
2023-11-01T06:29:31.865Z,2.81
2023-11-01T06:30:32.751Z,2.60
2023-11-01T06:31:31.852Z,2.89
2023-11-01T06:32:31.915Z,3.07
2023-11-01T06:33:32.130Z,3.08
2023-11-01T06:34:31.945Z,3.08
2023-11-01T06:35:32.005Z,3.21
2023-11-01T06:36:32.087Z,3.33
2023-11-01T06:37:32.094Z,3.42
2023-11-01T06:38:32.151Z,3.57
2023-11-01T06:39:32.635Z,3.83
2023-11-01T06:40:32.705Z,3.96
2023-11-01T06:41:32.867Z,3.79
2023-11-01T06:42:32.803Z,3.88
2023-11-01T06:43:32.837Z,4.13
2023-11-01T06:44:32.894Z,4.41
2023-11-01T06:45:33.049Z,4.29
2023-11-01T06:46:33.010Z,3.94
2023-11-01T06:47:33.046Z,3.28
2023-11-01T06:48:33.018Z,3.16
2023-11-01T06:49:32.990Z,3.20
2023-11-01T06:50:33.095Z,3.36
2023-11-01T06:51:33.137Z,2.92
2023-11-01T06:52:33.115Z,2.86
2023-11-01T06:53:33.231Z,2.91
2023-11-01T06:54:33.236Z,2.80
2023-11-01T06:55:33.244Z,2.81
2023-11-01T06:56:33.255Z,2.62
2023-11-01T06:57:33.436Z,2.12
2023-11-01T06:58:33.350Z,2.15
2023-11-01T06:59:33.390Z,2.29
2023-11-01T07:00:33.421Z,2.20
2023-11-01T07:01:33.446Z,2.16
2023-11-01T07:02:33.535Z,2.09
2023-11-01T07:03:33.690Z,2.10
2023-11-01T07:04:33.511Z,2.00
2023-11-01T07:05:33.604Z,2.05
2023-11-01T07:06:33.618Z,2.01
2023-11-01T07:07:33.719Z,2.09
2023-11-01T07:08:33.832Z,2.19
2023-11-01T07:09:33.790Z,2.42
2023-11-01T07:10:33.956Z,2.58
2023-11-01T07:11:33.948Z,2.74
2023-11-01T07:12:34.728Z,2.88
2023-11-01T07:13:33.968Z,2.92
2023-11-01T07:28:16.149Z,0.50
2023-11-01T07:29:15.857Z,0.50
2023-11-01T07:30:15.849Z,0.50
2023-11-01T07:31:16.176Z,0.50
2023-11-01T07:32:17.173Z,0.50
2023-11-01T07:33:16.689Z,0.50
2023-11-01T07:34:16.061Z,0.48
2023-11-01T07:35:15.761Z,0.51
2023-11-01T07:36:15.791Z,0.53
2023-11-01T07:37:15.834Z,0.52
2023-11-01T07:38:15.801Z,0.51
2023-11-01T07:39:16.111Z,0.51
2023-11-01T07:40:15.789Z,0.52
2023-11-01T07:41:15.823Z,0.55
2023-11-01T07:42:15.727Z,0.52
2023-11-01T07:43:15.726Z,0.52
2023-11-01T07:44:15.748Z,0.55
2023-11-01T07:45:15.752Z,0.58
2023-11-01T07:46:15.746Z,0.57
2023-11-01T07:47:15.677Z,0.56
2023-11-01T07:48:19.300Z,0.51
2023-11-01T07:49:15.789Z,0.51
2023-11-01T07:50:15.667Z,0.54
2023-11-01T07:51:15.688Z,0.46
2023-11-01T07:52:15.688Z,0.42
2023-11-01T07:53:15.663Z,0.43
2023-11-01T07:56:30.693Z,0.50
2023-11-01T07:57:30.459Z,0.50
2023-11-01T07:58:30.600Z,0.50
2023-11-01T07:59:30.858Z,0.50
2023-11-01T08:00:31.401Z,0.50
2023-11-01T08:01:30.422Z,0.50
2023-11-01T08:02:30.474Z,0.44
2023-11-01T08:03:30.532Z,0.43
2023-11-01T08:04:30.685Z,0.53
2023-11-01T08:05:30.366Z,0.66
2023-11-01T08:06:30.413Z,0.79
2023-11-01T08:07:30.330Z,0.84
2023-11-01T08:08:30.338Z,1.01
2023-11-01T08:09:30.351Z,1.60
2023-11-01T08:10:30.438Z,3.32
2023-11-01T08:11:30.355Z,6.45
2023-11-01T08:12:30.354Z,9.36
2023-11-01T08:13:30.344Z,9.48
2023-11-01T08:14:30.357Z,11.84
2023-11-01T08:15:30.354Z,16.44
2023-11-01T08:16:30.394Z,19.46
2023-11-01T08:17:30.476Z,18.04
2023-11-01T08:18:30.387Z,18.81
2023-11-01T08:19:30.459Z,20.74
2023-11-01T08:20:30.507Z,14.69
2023-11-01T08:21:30.514Z,3.20
2023-11-01T08:22:30.537Z,1.09
2023-11-01T08:23:30.633Z,0.59
2023-11-01T08:24:30.548Z,0.48
2023-11-01T08:25:30.634Z,0.56
2023-11-01T08:26:30.695Z,0.51
2023-11-01T08:27:30.663Z,0.49
2023-11-01T08:28:30.693Z,0.51
2023-11-01T08:29:30.934Z,0.46
2023-11-01T08:30:30.713Z,0.34
2023-11-01T08:31:30.776Z,0.34
2023-11-01T08:32:30.853Z,0.34
2023-11-01T08:33:30.918Z,0.34
2023-11-01T08:34:31.118Z,0.34
2023-11-01T08:35:30.953Z,0.50
2023-11-01T08:36:30.913Z,0.59
2023-11-01T08:37:30.945Z,0.50
2023-11-01T08:38:31.269Z,0.52
2023-11-01T08:39:31.005Z,0.55
2023-11-01T08:40:31.045Z,0.55
2023-11-01T08:41:31.097Z,0.61
2023-11-01T08:42:31.191Z,0.69
2023-11-01T08:43:31.144Z,0.74
2023-11-01T08:44:31.225Z,0.77
2023-11-01T08:45:31.222Z,0.88
2023-11-01T08:46:31.419Z,0.58
2023-11-01T08:47:31.271Z,0.47
2023-11-01T08:48:31.285Z,0.51
2023-11-01T08:49:31.331Z,0.57
2023-11-01T08:50:31.341Z,0.61
2023-11-01T08:51:31.316Z,0.73
2023-11-01T08:52:31.462Z,0.82
2023-11-01T08:53:32.967Z,0.55
2023-11-01T08:54:31.463Z,0.43
2023-11-01T08:55:31.563Z,0.50
2023-11-01T08:56:31.620Z,0.55
2023-11-01T08:57:34.116Z,0.51
2023-11-01T08:58:31.710Z,0.66
2023-11-01T08:59:31.720Z,0.62
2023-11-01T09:00:39.499Z,0.59
2023-11-01T09:01:32.881Z,0.49
2023-11-01T09:02:31.794Z,0.42
2023-11-01T09:03:31.840Z,0.34
2023-11-01T09:04:31.797Z,0.34
2023-11-01T09:05:31.737Z,0.34
2023-11-01T09:06:31.756Z,0.34
2023-11-01T09:07:31.768Z,0.34
2023-11-01T09:08:31.968Z,0.34
2023-11-01T09:09:31.676Z,0.34
2023-11-01T09:10:31.697Z,0.34
2023-11-01T09:11:31.717Z,0.34
2023-11-01T09:12:31.837Z,0.34
2023-11-01T09:13:31.682Z,0.34
2023-11-01T09:14:31.724Z,0.34
2023-11-01T09:15:31.714Z,0.34
2023-11-01T09:16:31.767Z,0.34
2023-11-01T09:17:31.765Z,0.34
2023-11-01T09:18:31.940Z,0.34
2023-11-01T09:19:31.821Z,0.34
2023-11-01T09:20:31.918Z,0.34
2023-11-01T09:21:31.865Z,0.34
2023-11-01T09:22:31.951Z,0.34
2023-11-01T09:23:31.988Z,0.34
2023-11-01T09:24:32.017Z,0.34
2023-11-01T09:25:31.993Z,0.38
2023-11-01T09:26:32.148Z,0.57
2023-11-01T09:27:32.068Z,0.51
2023-11-01T09:28:32.626Z,0.74
2023-11-01T09:29:32.173Z,1.60
2023-11-01T09:30:32.229Z,2.01
2023-11-01T09:31:32.157Z,1.25
2023-11-01T09:32:32.344Z,0.63
2023-11-01T09:33:32.339Z,0.54
2023-11-01T09:34:32.341Z,0.56
2023-11-01T09:35:32.486Z,0.45
2023-11-01T09:36:32.479Z,0.34
2023-11-01T09:37:32.411Z,0.34
2023-11-01T09:38:32.403Z,0.43
2023-11-01T09:39:33.218Z,0.52
2023-11-01T09:40:33.193Z,0.74
2023-11-01T09:41:32.448Z,0.48
2023-11-01T09:42:32.517Z,0.35
2023-11-01T09:43:32.528Z,0.39
2023-11-01T09:44:32.611Z,0.34
2023-11-01T09:45:32.626Z,0.34
2023-11-01T09:46:32.657Z,0.34
2023-11-01T09:47:32.718Z,0.34
2023-11-01T09:48:32.757Z,0.34
2023-11-01T09:49:32.758Z,0.34
2023-11-01T09:50:32.736Z,0.34
2023-11-01T09:51:32.724Z,0.34
2023-11-01T09:52:35.864Z,0.34
2023-11-01T09:53:32.820Z,0.34
2023-11-01T09:54:32.720Z,0.34
2023-11-01T09:55:32.879Z,0.34
2023-11-01T09:56:32.753Z,0.34
2023-11-01T09:57:32.712Z,0.34
2023-11-01T09:58:32.807Z,0.34
2023-11-01T09:59:33.666Z,0.34
2023-11-01T10:00:32.723Z,0.34
2023-11-01T10:01:32.659Z,0.34
2023-11-01T10:02:32.811Z,0.34
2023-11-01T10:03:32.709Z,0.34
2023-11-01T10:04:32.799Z,0.34
2023-11-01T10:05:32.668Z,0.34
2023-11-01T10:06:32.663Z,0.34
2023-11-01T10:07:32.689Z,0.46
2023-11-01T10:08:32.722Z,0.49
2023-11-01T10:09:32.615Z,0.40
2023-11-01T10:10:33.149Z,0.45
2023-11-01T10:11:32.671Z,0.63
2023-11-01T10:12:32.675Z,0.69
2023-11-01T10:13:32.612Z,0.91
2023-11-01T10:14:32.650Z,0.93
2023-11-01T10:15:32.743Z,1.46
2023-11-01T10:16:32.645Z,1.53
2023-11-01T10:17:32.725Z,1.82
2023-11-01T10:18:32.709Z,2.20
2023-11-01T10:19:32.697Z,2.06
2023-11-01T10:20:32.552Z,1.69
2023-11-01T10:21:32.558Z,1.92
2023-11-01T10:22:32.583Z,2.34
2023-11-01T10:23:32.538Z,3.08
2023-11-01T10:24:32.531Z,4.34
2023-11-01T10:25:32.827Z,4.36
2023-11-01T10:26:32.529Z,4.00
2023-11-01T10:27:32.511Z,4.33
2023-11-01T10:28:32.512Z,3.62
2023-11-01T10:29:32.467Z,5.07
2023-11-01T10:30:32.525Z,4.87
2023-11-01T10:31:32.651Z,5.56
2023-11-01T10:32:32.577Z,5.40
2023-11-01T10:33:32.524Z,4.70
2023-11-01T10:34:32.485Z,4.09
2023-11-01T10:35:32.515Z,3.90
2023-11-01T10:36:32.521Z,4.97
2023-11-01T10:37:32.480Z,4.96
2023-11-01T10:38:32.498Z,5.25
2023-11-01T10:39:32.481Z,3.73
2023-11-01T10:40:32.606Z,2.71
2023-11-01T10:41:32.514Z,2.30
2023-11-01T10:42:32.531Z,1.56
2023-11-01T10:43:32.636Z,1.23
2023-11-01T10:44:32.597Z,1.41
2023-11-01T10:45:32.678Z,1.18
2023-11-01T10:46:32.709Z,0.81
2023-11-01T10:47:32.762Z,0.53
2023-11-01T10:48:32.814Z,0.62
2023-11-01T10:49:32.751Z,0.77
2023-11-01T10:50:32.815Z,0.93
2023-11-01T10:51:32.879Z,1.26
2023-11-01T10:52:32.876Z,1.76
2023-11-01T10:53:32.878Z,2.96
2023-11-01T10:54:33.016Z,2.31
2023-11-01T10:55:32.912Z,0.92
2023-11-01T10:56:32.958Z,0.49
2023-11-01T10:57:32.930Z,0.41
2023-11-01T10:58:32.953Z,0.42
2023-11-01T10:59:32.980Z,0.48
2023-11-01T11:00:33.052Z,0.66
2023-11-01T11:01:33.145Z,1.15
2023-11-01T11:02:33.174Z,2.57
2023-11-01T11:03:33.347Z,1.99
2023-11-01T11:04:33.281Z,1.09
2023-11-01T11:05:33.195Z,0.69
2023-11-01T11:06:33.188Z,0.40
2023-11-01T11:07:33.346Z,0.36
2023-11-01T11:08:33.333Z,0.41
2023-11-01T11:09:33.322Z,0.57
2023-11-01T11:10:33.464Z,0.71
2023-11-01T11:11:33.450Z,0.63
2023-11-01T11:12:33.464Z,0.70
2023-11-01T11:13:33.443Z,0.88
2023-11-01T11:14:33.578Z,0.93
2023-11-01T11:15:33.546Z,1.36
2023-11-01T11:16:33.663Z,2.57
2023-11-01T11:17:33.659Z,2.86
2023-11-01T11:18:36.140Z,3.14
2023-11-01T11:19:34.618Z,2.84
2023-11-01T11:20:33.601Z,3.47
2023-11-01T11:21:33.582Z,5.28
2023-11-01T11:22:33.586Z,10.95
2023-11-01T11:23:33.608Z,20.30
2023-11-01T11:24:34.184Z,19.26
2023-11-01T11:25:33.522Z,19.85
2023-11-01T11:26:33.552Z,19.19
2023-11-01T11:27:33.521Z,6.87
2023-11-01T11:28:33.539Z,2.49
2023-11-01T11:29:33.603Z,1.16
2023-11-01T11:30:35.024Z,0.91
2023-11-01T11:31:33.606Z,0.97
2023-11-01T11:32:33.881Z,0.73
2023-11-01T11:33:33.765Z,0.51
2023-11-01T11:34:34.617Z,0.54
2023-11-01T11:35:33.808Z,0.62
2023-11-01T11:36:35.480Z,0.83
2023-11-01T11:37:34.020Z,1.01
2023-11-01T11:38:34.103Z,1.73
2023-11-01T11:39:34.056Z,1.69
2023-11-01T11:40:34.050Z,1.46
2023-11-01T11:41:34.164Z,1.27
2023-11-01T11:42:35.217Z,1.23
2023-11-01T11:43:34.152Z,0.46
2023-11-01T11:44:34.263Z,0.53
2023-11-01T11:45:34.313Z,0.88
2023-11-01T11:46:34.278Z,1.12
2023-11-01T11:47:34.461Z,1.46
2023-11-01T11:48:34.432Z,1.11
2023-11-01T11:49:34.405Z,0.89
2023-11-01T11:50:34.379Z,0.61
2023-11-01T11:51:34.432Z,0.56
2023-11-01T11:52:34.533Z,0.56
2023-11-01T11:53:34.573Z,0.50
2023-11-01T11:54:34.534Z,0.36
2023-11-01T11:55:34.627Z,0.45
2023-11-01T11:56:34.624Z,0.84
2023-11-01T11:57:34.610Z,1.79
2023-11-01T11:58:35.382Z,2.78
2023-11-01T11:59:34.758Z,2.23
2023-11-01T12:00:34.794Z,1.38
2023-11-01T12:01:34.827Z,1.04
2023-11-01T12:02:34.854Z,1.99
2023-11-01T12:03:34.970Z,3.64
2023-11-01T12:04:37.665Z,3.26
2023-11-01T12:05:34.864Z,1.86
2023-11-01T12:06:34.826Z,2.04
2023-11-01T12:07:34.946Z,3.19
2023-11-01T12:08:34.878Z,3.30
2023-11-01T12:09:34.808Z,3.00
2023-11-01T12:10:37.408Z,2.73
2023-11-01T12:11:34.812Z,2.33
2023-11-01T12:12:34.831Z,1.65
2023-11-01T12:13:34.775Z,1.29
2023-11-01T12:14:34.812Z,1.33
2023-11-01T12:15:34.800Z,3.19
2023-11-01T12:16:37.160Z,10.01
2023-11-01T12:17:34.998Z,10.21
2023-11-01T12:18:35.735Z,11.84
2023-11-01T12:19:34.789Z,13.24
2023-11-01T12:20:34.788Z,15.77
2023-11-01T12:21:34.729Z,16.07
2023-11-01T12:22:34.737Z,12.83
2023-11-01T12:23:34.780Z,13.30
2023-11-01T12:24:34.745Z,17.42
2023-11-01T12:25:34.702Z,50.54
2023-11-01T12:26:35.204Z,111.45
2023-11-01T12:27:34.688Z,74.94
2023-11-01T12:28:37.071Z,52.38
2023-11-01T12:29:34.937Z,38.61
2023-11-01T12:30:34.653Z,35.56
2023-11-01T12:31:37.702Z,39.63
2023-11-01T12:32:34.839Z,28.98
2023-11-01T12:33:34.958Z,25.58
2023-11-01T12:34:34.679Z,31.15
2023-11-01T12:35:34.753Z,19.00
2023-11-01T12:36:34.637Z,14.60
2023-11-01T12:37:34.689Z,10.10
2023-11-01T12:38:34.653Z,2.96
2023-11-01T12:39:34.682Z,1.14
2023-11-01T12:40:36.811Z,1.32
2023-11-01T12:41:34.722Z,0.96
2023-11-01T12:42:34.634Z,0.86
2023-11-01T12:43:34.669Z,0.74
2023-11-01T12:44:34.703Z,0.99
2023-11-01T12:45:34.602Z,2.70
2023-11-01T12:46:35.914Z,8.91
2023-11-01T12:47:34.614Z,8.98
2023-11-01T12:48:34.538Z,9.78
2023-11-01T12:49:34.576Z,12.52
2023-11-01T12:50:34.719Z,17.98
2023-11-01T12:51:34.537Z,34.82
2023-11-01T12:52:36.606Z,43.00
2023-11-01T12:53:34.558Z,26.80
2023-11-01T12:54:34.561Z,17.04
2023-11-01T12:55:34.548Z,6.48
2023-11-01T12:56:34.541Z,1.98
2023-11-01T12:57:34.576Z,0.87
2023-11-01T12:58:35.934Z,1.48
2023-11-01T12:59:34.900Z,1.54
2023-11-01T13:00:34.911Z,1.88
2023-11-01T13:06:53.439Z,0.50
2023-11-01T13:07:53.420Z,0.50
2023-11-01T13:08:53.633Z,0.50
2023-11-01T13:09:53.336Z,0.50
2023-11-01T13:10:53.390Z,0.50
2023-11-01T13:11:53.378Z,0.58
2023-11-01T13:12:53.365Z,0.56
2023-11-01T13:13:53.305Z,0.63
2023-11-01T13:14:53.284Z,0.57
2023-11-01T13:15:53.384Z,0.58
2023-11-01T13:16:53.296Z,0.39
2023-11-01T13:17:53.310Z,0.34
2023-11-01T13:18:53.315Z,0.34
2023-11-01T13:19:54.365Z,0.40
2023-11-01T13:20:53.235Z,0.61
2023-11-01T13:21:53.216Z,0.71
2023-11-01T13:22:54.909Z,0.87
2023-11-01T13:23:53.294Z,0.62
2023-11-01T13:24:53.303Z,0.34
2023-11-01T13:25:53.247Z,0.34
2023-11-01T13:26:53.311Z,0.34
2023-11-01T13:27:53.226Z,0.34
2023-11-01T13:28:53.225Z,0.34
2023-11-01T13:29:53.308Z,0.59
2023-11-01T13:30:53.206Z,1.65
2023-11-01T13:31:55.092Z,3.74
2023-11-01T13:32:53.340Z,7.94
2023-11-01T13:33:53.291Z,10.34
2023-11-01T13:34:53.331Z,2.00
2023-11-01T13:35:53.380Z,0.34
2023-11-01T13:36:56.803Z,0.34
2023-11-01T13:37:53.347Z,0.35
2023-11-01T13:38:53.398Z,0.54